sensor_id;sensor_type;location;lat;lon;timestamp;temperature;humidity
6206;DHT22;3136;48.788;9.772;2023-04-01T00:01:58;9.40;99.90
6206;DHT22;3136;48.788;9.772;2023-04-01T00:04:24;9.40;99.90
6206;DHT22;3136;48.788;9.772;2023-04-01T00:06:50;9.30;99.90
6206;DHT22;3136;48.788;9.772;2023-04-01T00:09:17;9.30;99.90
6206;DHT22;3136;48.788;9.772;2023-04-01T00:11:43;9.30;99.90
6206;DHT22;3136;48.788;9.772;2023-04-01T00:14:12;9.30;99.90
6206;DHT22;3136;48.788;9.772;2023-04-01T00:16:38;9.30;99.90
6206;DHT22;3136;48.788;9.772;2023-04-01T00:19:03;9.30;99.90
6206;DHT22;3136;48.788;9.772;2023-04-01T00:21:29;9.30;99.90
6206;DHT22;3136;48.788;9.772;2023-04-01T00:23:54;9.30;99.90
6206;DHT22;3136;48.788;9.772;2023-04-01T00:26:21;9.30;99.90
6206;DHT22;3136;48.788;9.772;2023-04-01T00:28:47;9.30;99.90
6206;DHT22;3136;48.788;9.772;2023-04-01T00:31:13;9.30;99.90
6206;DHT22;3136;48.788;9.772;2023-04-01T00:33:39;9.40;99.90
6206;DHT22;3136;48.788;9.772;2023-04-01T00:36:15;9.40;99.90
6206;DHT22;3136;48.788;9.772;2023-04-01T00:38:41;9.40;99.90
6206;DHT22;3136;48.788;9.772;2023-04-01T00:41:08;9.30;99.90
6206;DHT22;3136;48.788;9.772;2023-04-01T00:43:35;9.30;99.90
6206;DHT22;3136;48.788;9.772;2023-04-01T00:46:00;9.30;99.90
6206;DHT22;3136;48.788;9.772;2023-04-01T00:48:31;9.30;99.90
6206;DHT22;3136;48.788;9.772;2023-04-01T00:51:02;9.30;99.90
6206;DHT22;3136;48.788;9.772;2023-04-01T00:53:31;9.30;99.90
6206;DHT22;3136;48.788;9.772;2023-04-01T00:56:04;9.30;99.90
6206;DHT22;3136;48.788;9.772;2023-04-01T00:58:34;9.40;99.90
6206;DHT22;3136;48.788;9.772;2023-04-01T01:01:00;9.30;99.90
6206;DHT22;3136;48.788;9.772;2023-04-01T01:03:26;9.30;99.90
6206;DHT22;3136;48.788;9.772;2023-04-01T01:08:59;9.20;99.90
6206;DHT22;3136;48.788;9.772;2023-04-01T01:11:36;9.10;99.90
6206;DHT22;3136;48.788;9.772;2023-04-01T01:36:12;8.50;1.00
6206;DHT22;3136;48.788;9.772;2023-04-01T01:38:39;8.30;99.90
6206;DHT22;3136;48.788;9.772;2023-04-01T01:41:07;8.20;1.00
6206;DHT22;3136;48.788;9.772;2023-04-01T01:43:39;8.10;9.80
6206;DHT22;3136;48.788;9.772;2023-04-01T01:46:11;8.10;20.60
6206;DHT22;3136;48.788;9.772;2023-04-01T01:48:37;8.00;99.90
6206;DHT22;3136;48.788;9.772;2023-04-01T01:51:05;7.90;1.00
6206;DHT22;3136;48.788;9.772;2023-04-01T01:53:31;7.90;1.00
6206;DHT22;3136;48.788;9.772;2023-04-01T01:55:57;7.90;99.90
6206;DHT22;3136;48.788;9.772;2023-04-01T01:58:30;7.90;1.00
6206;DHT22;3136;48.788;9.772;2023-04-01T02:01:00;7.80;1.00
6206;DHT22;3136;48.788;9.772;2023-04-01T02:03:29;7.80;1.00
6206;DHT22;3136;48.788;9.772;2023-04-01T02:05:57;7.90;99.90
6206;DHT22;3136;48.788;9.772;2023-04-01T02:08:41;7.90;1.00
6206;DHT22;3136;48.788;9.772;2023-04-01T02:11:13;7.90;4.50
6206;DHT22;3136;48.788;9.772;2023-04-01T02:13:53;7.90;99.90
6206;DHT22;3136;48.788;9.772;2023-04-01T02:17:02;7.90;99.90
6206;DHT22;3136;48.788;9.772;2023-04-01T02:19:19;7.90;99.90
6206;DHT22;3136;48.788;9.772;2023-04-01T02:21:50;8.00;1.00
6206;DHT22;3136;48.788;9.772;2023-04-01T02:24:18;8.00;99.90
6206;DHT22;3136;48.788;9.772;2023-04-01T02:26:48;8.00;99.90
6206;DHT22;3136;48.788;9.772;2023-04-01T02:29:15;7.90;99.90
6206;DHT22;3136;48.788;9.772;2023-04-01T02:31:42;7.90;1.00
6206;DHT22;3136;48.788;9.772;2023-04-01T02:34:08;7.90;1.00
6206;DHT22;3136;48.788;9.772;2023-04-01T02:36:35;7.70;99.90
6206;DHT22;3136;48.788;9.772;2023-04-01T02:39:01;7.80;32.40
6206;DHT22;3136;48.788;9.772;2023-04-01T02:43:55;7.80;1.00
6206;DHT22;3136;48.788;9.772;2023-04-01T02:46:22;7.80;1.00
6206;DHT22;3136;48.788;9.772;2023-04-01T02:48:48;7.80;1.00
6206;DHT22;3136;48.788;9.772;2023-04-01T02:51:13;7.80;1.00
6206;DHT22;3136;48.788;9.772;2023-04-01T02:53:39;7.80;1.00
6206;DHT22;3136;48.788;9.772;2023-04-01T02:56:05;7.70;1.00
6206;DHT22;3136;48.788;9.772;2023-04-01T02:58:30;7.80;99.90
6206;DHT22;3136;48.788;9.772;2023-04-01T03:00:56;7.80;99.90
6206;DHT22;3136;48.788;9.772;2023-04-01T03:03:21;7.90;99.90
6206;DHT22;3136;48.788;9.772;2023-04-01T03:05:47;7.90;99.90
6206;DHT22;3136;48.788;9.772;2023-04-01T03:08:12;7.90;99.90
6206;DHT22;3136;48.788;9.772;2023-04-01T03:10:38;7.90;74.00
6206;DHT22;3136;48.788;9.772;2023-04-01T03:13:04;7.90;94.60
6206;DHT22;3136;48.788;9.772;2023-04-01T03:15:29;7.90;58.50
6206;DHT22;3136;48.788;9.772;2023-04-01T03:17:55;7.90;33.00
6206;DHT22;3136;48.788;9.772;2023-04-01T03:20:21;7.90;1.00
6206;DHT22;3136;48.788;9.772;2023-04-01T03:22:46;7.90;1.00
6206;DHT22;3136;48.788;9.772;2023-04-01T03:25:12;7.90;1.00
6206;DHT22;3136;48.788;9.772;2023-04-01T03:27:38;7.90;1.00
6206;DHT22;3136;48.788;9.772;2023-04-01T03:30:05;7.90;1.00
6206;DHT22;3136;48.788;9.772;2023-04-01T03:32:31;7.90;1.00
6206;DHT22;3136;48.788;9.772;2023-04-01T03:34:56;7.90;1.00
6206;DHT22;3136;48.788;9.772;2023-04-01T03:37:23;7.90;1.00
6206;DHT22;3136;48.788;9.772;2023-04-01T03:39:48;8.20;1.00
6206;DHT22;3136;48.788;9.772;2023-04-01T03:42:14;7.90;1.00
6206;DHT22;3136;48.788;9.772;2023-04-01T03:44:40;7.90;1.00
6206;DHT22;3136;48.788;9.772;2023-04-01T03:47:06;7.90;1.00
6206;DHT22;3136;48.788;9.772;2023-04-01T03:49:32;8.10;99.90
6206;DHT22;3136;48.788;9.772;2023-04-01T03:51:58;8.20;99.90
6206;DHT22;3136;48.788;9.772;2023-04-01T03:54:24;8.20;99.90
6206;DHT22;3136;48.788;9.772;2023-04-01T03:56:49;8.00;99.90
6206;DHT22;3136;48.788;9.772;2023-04-01T03:59:15;8.10;99.90
6206;DHT22;3136;48.788;9.772;2023-04-01T04:01:41;8.20;99.90
6206;DHT22;3136;48.788;9.772;2023-04-01T04:04:06;8.20;99.90
6206;DHT22;3136;48.788;9.772;2023-04-01T04:06:33;8.30;99.90
6206;DHT22;3136;48.788;9.772;2023-04-01T04:08:59;8.10;99.90
6206;DHT22;3136;48.788;9.772;2023-04-01T04:11:24;8.20;99.90
6206;DHT22;3136;48.788;9.772;2023-04-01T04:16:18;8.30;99.90
6206;DHT22;3136;48.788;9.772;2023-04-01T04:18:43;8.30;99.90
6206;DHT22;3136;48.788;9.772;2023-04-01T04:21:12;8.30;99.90
6206;DHT22;3136;48.788;9.772;2023-04-01T04:23:39;8.30;99.90
6206;DHT22;3136;48.788;9.772;2023-04-01T04:26:07;8.30;99.90
6206;DHT22;3136;48.788;9.772;2023-04-01T04:28:33;8.20;99.90
6206;DHT22;3136;48.788;9.772;2023-04-01T04:30:58;8.10;99.90
6206;DHT22;3136;48.788;9.772;2023-04-01T04:33:24;8.00;99.90
6206;DHT22;3136;48.788;9.772;2023-04-01T04:35:51;8.00;99.90
6206;DHT22;3136;48.788;9.772;2023-04-01T04:38:19;7.90;99.90
6206;DHT22;3136;48.788;9.772;2023-04-01T04:40:45;7.90;99.90
6206;DHT22;3136;48.788;9.772;2023-04-01T04:43:12;7.80;99.90
6206;DHT22;3136;48.788;9.772;2023-04-01T04:45:38;7.80;99.90
6206;DHT22;3136;48.788;9.772;2023-04-01T04:48:04;7.80;99.90
6206;DHT22;3136;48.788;9.772;2023-04-01T04:50:30;7.80;99.90
6206;DHT22;3136;48.788;9.772;2023-04-01T04:52:55;7.80;99.90
6206;DHT22;3136;48.788;9.772;2023-04-01T04:55:21;7.90;99.90
6206;DHT22;3136;48.788;9.772;2023-04-01T04:57:46;7.80;99.90
6206;DHT22;3136;48.788;9.772;2023-04-01T05:00:12;8.00;99.90
6206;DHT22;3136;48.788;9.772;2023-04-01T05:02:38;7.90;99.90
6206;DHT22;3136;48.788;9.772;2023-04-01T05:05:04;7.90;99.90
6206;DHT22;3136;48.788;9.772;2023-04-01T05:07:29;7.80;99.90
6206;DHT22;3136;48.788;9.772;2023-04-01T05:09:55;7.80;99.90
6206;DHT22;3136;48.788;9.772;2023-04-01T05:12:21;7.90;99.90
6206;DHT22;3136;48.788;9.772;2023-04-01T05:14:46;8.00;99.90
6206;DHT22;3136;48.788;9.772;2023-04-01T05:17:12;8.10;99.90
6206;DHT22;3136;48.788;9.772;2023-04-01T05:19:39;8.00;99.90
6206;DHT22;3136;48.788;9.772;2023-04-01T05:22:05;8.10;99.90
6206;DHT22;3136;48.788;9.772;2023-04-01T05:24:31;8.20;99.90
6206;DHT22;3136;48.788;9.772;2023-04-01T05:26:57;8.20;99.90
6206;DHT22;3136;48.788;9.772;2023-04-01T05:29:24;8.20;99.90
6206;DHT22;3136;48.788;9.772;2023-04-01T05:31:50;8.20;99.90
6206;DHT22;3136;48.788;9.772;2023-04-01T05:34:16;8.20;99.90
6206;DHT22;3136;48.788;9.772;2023-04-01T05:36:42;8.30;99.90
6206;DHT22;3136;48.788;9.772;2023-04-01T05:39:08;8.30;99.90
6206;DHT22;3136;48.788;9.772;2023-04-01T05:41:37;8.30;99.90
6206;DHT22;3136;48.788;9.772;2023-04-01T05:44:04;8.30;99.90
6206;DHT22;3136;48.788;9.772;2023-04-01T05:46:30;8.20;99.90
6206;DHT22;3136;48.788;9.772;2023-04-01T05:48:56;8.10;99.90
6206;DHT22;3136;48.788;9.772;2023-04-01T05:51:21;8.20;99.90
6206;DHT22;3136;48.788;9.772;2023-04-01T05:53:47;8.10;99.90
6206;DHT22;3136;48.788;9.772;2023-04-01T05:56:13;8.20;99.90
6206;DHT22;3136;48.788;9.772;2023-04-01T05:58:39;8.30;99.90
6206;DHT22;3136;48.788;9.772;2023-04-01T06:01:07;8.30;99.90
6206;DHT22;3136;48.788;9.772;2023-04-01T06:03:32;8.40;99.90
6206;DHT22;3136;48.788;9.772;2023-04-01T06:05:58;8.50;99.90
6206;DHT22;3136;48.788;9.772;2023-04-01T06:08:24;8.60;99.90
6206;DHT22;3136;48.788;9.772;2023-04-01T06:22:11;8.90;99.90
6206;DHT22;3136;48.788;9.772;2023-04-01T06:25:04;9.00;99.90
6206;DHT22;3136;48.788;9.772;2023-04-01T06:30:40;9.10;99.90
6206;DHT22;3136;48.788;9.772;2023-04-01T06:33:15;9.20;99.90
6206;DHT22;3136;48.788;9.772;2023-04-01T06:36:14;9.30;99.90
6206;DHT22;3136;48.788;9.772;2023-04-01T06:38:53;9.20;99.90
6206;DHT22;3136;48.788;9.772;2023-04-01T06:46:45;9.40;99.90
6206;DHT22;3136;48.788;9.772;2023-04-01T06:54:42;9.40;99.90
6206;DHT22;3136;48.788;9.772;2023-04-01T06:57:29;9.40;99.90
6206;DHT22;3136;48.788;9.772;2023-04-01T07:00:00;9.40;99.90
6206;DHT22;3136;48.788;9.772;2023-04-01T07:02:37;9.50;99.90
6206;DHT22;3136;48.788;9.772;2023-04-01T07:05:05;9.50;99.90
6206;DHT22;3136;48.788;9.772;2023-04-01T07:07:44;9.50;99.90
6206;DHT22;3136;48.788;9.772;2023-04-01T07:10:17;9.50;99.90
6206;DHT22;3136;48.788;9.772;2023-04-01T07:12:46;9.50;99.90
6206;DHT22;3136;48.788;9.772;2023-04-01T07:15:20;9.50;99.90
6206;DHT22;3136;48.788;9.772;2023-04-01T07:17:48;9.60;99.90
6206;DHT22;3136;48.788;9.772;2023-04-01T07:20:26;9.70;99.90
6206;DHT22;3136;48.788;9.772;2023-04-01T07:23:02;9.70;99.90
6206;DHT22;3136;48.788;9.772;2023-04-01T07:25:36;9.80;99.90
6206;DHT22;3136;48.788;9.772;2023-04-01T07:28:06;9.80;99.90
6206;DHT22;3136;48.788;9.772;2023-04-01T07:31:00;9.90;99.90
6206;DHT22;3136;48.788;9.772;2023-04-01T07:41:50;10.00;99.90
6206;DHT22;3136;48.788;9.772;2023-04-01T07:44:41;9.90;99.90
6206;DHT22;3136;48.788;9.772;2023-04-01T07:47:33;10.00;99.90
6206;DHT22;3136;48.788;9.772;2023-04-01T07:50:14;10.10;99.90
6206;DHT22;3136;48.788;9.772;2023-04-01T07:52:54;10.10;99.90
6206;DHT22;3136;48.788;9.772;2023-04-01T07:56:00;10.30;99.90
6206;DHT22;3136;48.788;9.772;2023-04-01T08:01:14;10.40;97.20
6206;DHT22;3136;48.788;9.772;2023-04-01T08:03:57;10.40;95.70
6206;DHT22;3136;48.788;9.772;2023-04-01T08:15:01;10.60;99.90
6206;DHT22;3136;48.788;9.772;2023-04-01T08:23:22;10.60;99.90
6206;DHT22;3136;48.788;9.772;2023-04-01T08:28:50;10.50;99.90
6206;DHT22;3136;48.788;9.772;2023-04-01T08:31:43;10.50;99.90
6206;DHT22;3136;48.788;9.772;2023-04-01T08:34:17;10.50;99.90
6206;DHT22;3136;48.788;9.772;2023-04-01T08:36:48;10.40;99.90
6206;DHT22;3136;48.788;9.772;2023-04-01T08:39:34;10.40;99.90
6206;DHT22;3136;48.788;9.772;2023-04-01T08:48:12;10.10;99.90
6206;DHT22;3136;48.788;9.772;2023-04-01T08:54:03;10.10;99.90
6206;DHT22;3136;48.788;9.772;2023-04-01T08:59:44;10.00;99.90
6206;DHT22;3136;48.788;9.772;2023-04-01T09:02:44;10.10;99.90
6206;DHT22;3136;48.788;9.772;2023-04-01T09:08:37;10.20;99.90
6206;DHT22;3136;48.788;9.772;2023-04-01T09:17:13;10.20;99.90
6206;DHT22;3136;48.788;9.772;2023-04-01T09:25:29;10.30;99.90
6206;DHT22;3136;48.788;9.772;2023-04-01T09:28:01;10.30;99.90
6206;DHT22;3136;48.788;9.772;2023-04-01T09:36:45;9.30;99.90
6206;DHT22;3136;48.788;9.772;2023-04-01T09:39:48;9.10;1.00
6206;DHT22;3136;48.788;9.772;2023-04-01T09:42:43;8.90;1.00
6206;DHT22;3136;48.788;9.772;2023-04-01T09:45:47;8.80;1.00
6206;DHT22;3136;48.788;9.772;2023-04-01T09:53:50;8.70;1.00
6206;DHT22;3136;48.788;9.772;2023-04-01T10:02:27;8.70;1.00
6206;DHT22;3136;48.788;9.772;2023-04-01T10:27:10;9.00;1.00
6206;DHT22;3136;48.788;9.772;2023-04-01T10:32:38;8.90;1.00
6206;DHT22;3136;48.788;9.772;2023-04-01T11:11:34;9.30;99.90
6206;DHT22;3136;48.788;9.772;2023-04-01T11:17:40;9.10;99.90
6206;DHT22;3136;48.788;9.772;2023-04-01T11:25:54;8.90;1.00
6206;DHT22;3136;48.788;9.772;2023-04-01T11:33:47;8.80;1.00
6206;DHT22;3136;48.788;9.772;2023-04-01T11:39:27;8.80;99.90
6206;DHT22;3136;48.788;9.772;2023-04-01T11:42:09;8.80;99.90
6206;DHT22;3136;48.788;9.772;2023-04-01T11:44:52;8.80;99.90
6206;DHT22;3136;48.788;9.772;2023-04-01T11:47:40;8.80;1.00
6206;DHT22;3136;48.788;9.772;2023-04-01T11:50:19;8.90;1.00
6206;DHT22;3136;48.788;9.772;2023-04-01T11:55:56;9.10;1.00
6206;DHT22;3136;48.788;9.772;2023-04-01T12:09:49;9.20;99.90
6206;DHT22;3136;48.788;9.772;2023-04-01T12:12:36;9.20;99.90
6206;DHT22;3136;48.788;9.772;2023-04-01T12:15:27;9.30;31.60
6206;DHT22;3136;48.788;9.772;2023-04-01T12:18:23;9.30;1.00
6206;DHT22;3136;48.788;9.772;2023-04-01T12:21:12;9.50;1.00
6206;DHT22;3136;48.788;9.772;2023-04-01T12:37:45;9.50;1.00
6206;DHT22;3136;48.788;9.772;2023-04-01T12:56:47;9.60;1.00
6206;DHT22;3136;48.788;9.772;2023-04-01T13:05:22;9.50;99.90
6206;DHT22;3136;48.788;9.772;2023-04-01T13:16:14;9.40;93.30
6206;DHT22;3136;48.788;9.772;2023-04-01T13:19:19;9.30;49.30
6206;DHT22;3136;48.788;9.772;2023-04-01T13:24:45;11.40;1.00
6206;DHT22;3136;48.788;9.772;2023-04-01T13:27:38;9.50;1.00
6206;DHT22;3136;48.788;9.772;2023-04-01T13:30:26;9.40;99.90
6206;DHT22;3136;48.788;9.772;2023-04-01T13:33:15;9.50;99.90
6206;DHT22;3136;48.788;9.772;2023-04-01T13:35:51;9.40;1.00
6206;DHT22;3136;48.788;9.772;2023-04-01T13:44:34;9.40;99.90
6206;DHT22;3136;48.788;9.772;2023-04-01T13:47:23;9.50;1.00
6206;DHT22;3136;48.788;9.772;2023-04-01T13:49:57;9.30;1.00
6206;DHT22;3136;48.788;9.772;2023-04-01T13:52:58;9.30;1.00
6206;DHT22;3136;48.788;9.772;2023-04-01T13:58:27;9.40;99.90
6206;DHT22;3136;48.788;9.772;2023-04-01T14:06:31;9.20;1.00
6206;DHT22;3136;48.788;9.772;2023-04-01T14:09:10;9.20;92.90
6206;DHT22;3136;48.788;9.772;2023-04-01T14:12:05;9.10;1.00
6206;DHT22;3136;48.788;9.772;2023-04-01T14:15:04;9.10;1.00
6206;DHT22;3136;48.788;9.772;2023-04-01T14:23:57;9.00;99.90
6206;DHT22;3136;48.788;9.772;2023-04-01T14:26:49;9.00;1.00
6206;DHT22;3136;48.788;9.772;2023-04-01T14:29:30;9.00;99.90
6206;DHT22;3136;48.788;9.772;2023-04-01T14:40:28;9.10;1.00
6206;DHT22;3136;48.788;9.772;2023-04-01T14:59:25;8.90;1.00
6206;DHT22;3136;48.788;9.772;2023-04-01T15:04:44;8.80;99.90
6206;DHT22;3136;48.788;9.772;2023-04-01T15:13:19;8.80;99.90
6206;DHT22;3136;48.788;9.772;2023-04-01T15:18:49;8.80;1.00
6206;DHT22;3136;48.788;9.772;2023-04-01T15:25:05;8.80;1.00
6206;DHT22;3136;48.788;9.772;2023-04-01T15:27:37;8.90;1.00
6206;DHT22;3136;48.788;9.772;2023-04-01T15:33:16;8.90;1.00
6206;DHT22;3136;48.788;9.772;2023-04-01T15:36:00;8.90;99.90
6206;DHT22;3136;48.788;9.772;2023-04-01T15:42:25;8.90;1.00
6206;DHT22;3136;48.788;9.772;2023-04-01T15:45:34;8.90;1.00
6206;DHT22;3136;48.788;9.772;2023-04-01T16:06:33;8.80;1.00
6206;DHT22;3136;48.788;9.772;2023-04-01T16:11:50;8.80;1.00
6206;DHT22;3136;48.788;9.772;2023-04-01T16:14:44;8.70;25.70
6206;DHT22;3136;48.788;9.772;2023-04-01T16:20:19;8.60;1.00
6206;DHT22;3136;48.788;9.772;2023-04-01T16:23:02;8.60;1.00
6206;DHT22;3136;48.788;9.772;2023-04-01T16:28:32;8.50;3.80
6206;DHT22;3136;48.788;9.772;2023-04-01T16:31:00;8.50;1.00
6206;DHT22;3136;48.788;9.772;2023-04-01T16:36:26;8.40;1.00
6206;DHT22;3136;48.788;9.772;2023-04-01T16:45:08;8.40;1.00
6206;DHT22;3136;48.788;9.772;2023-04-01T16:47:47;8.40;99.90
6206;DHT22;3136;48.788;9.772;2023-04-01T16:50:19;8.40;1.00
6206;DHT22;3136;48.788;9.772;2023-04-01T16:55:54;8.40;99.90
6206;DHT22;3136;48.788;9.772;2023-04-01T17:01:45;8.50;1.00
6206;DHT22;3136;48.788;9.772;2023-04-01T17:04:21;8.50;1.00
6206;DHT22;3136;48.788;9.772;2023-04-01T17:06:54;8.50;1.00
6206;DHT22;3136;48.788;9.772;2023-04-01T17:12:13;8.50;99.90
6206;DHT22;3136;48.788;9.772;2023-04-01T17:20:40;8.40;1.00
6206;DHT22;3136;48.788;9.772;2023-04-01T17:23:30;8.50;1.00
6206;DHT22;3136;48.788;9.772;2023-04-01T17:26:01;8.50;1.00
6206;DHT22;3136;48.788;9.772;2023-04-01T17:31:45;8.50;1.00
6206;DHT22;3136;48.788;9.772;2023-04-01T17:42:15;8.30;1.00
6206;DHT22;3136;48.788;9.772;2023-04-01T17:44:53;8.30;31.20
6206;DHT22;3136;48.788;9.772;2023-04-01T17:47:41;8.30;1.00
6206;DHT22;3136;48.788;9.772;2023-04-01T17:58:46;8.30;99.90
6206;DHT22;3136;48.788;9.772;2023-04-01T18:01:23;8.30;1.00
6206;DHT22;3136;48.788;9.772;2023-04-01T18:04:17;8.30;99.90
6206;DHT22;3136;48.788;9.772;2023-04-01T18:10:26;8.20;1.00
6206;DHT22;3136;48.788;9.772;2023-04-01T18:23:58;8.20;1.00
6206;DHT22;3136;48.788;9.772;2023-04-01T18:26:31;8.20;99.90
6206;DHT22;3136;48.788;9.772;2023-04-01T18:43:59;8.10;99.90
6206;DHT22;3136;48.788;9.772;2023-04-01T18:49:21;8.10;1.00
6206;DHT22;3136;48.788;9.772;2023-04-01T18:57:46;8.10;1.00
6206;DHT22;3136;48.788;9.772;2023-04-01T19:03:02;8.00;10.60
6206;DHT22;3136;48.788;9.772;2023-04-01T19:05:39;8.00;99.90
6206;DHT22;3136;48.788;9.772;2023-04-01T19:08:32;8.00;99.90
6206;DHT22;3136;48.788;9.772;2023-04-01T19:11:10;8.00;99.90
6206;DHT22;3136;48.788;9.772;2023-04-01T19:21:58;7.90;99.90
6206;DHT22;3136;48.788;9.772;2023-04-01T19:24:39;7.90;99.90
6206;DHT22;3136;48.788;9.772;2023-04-01T19:27:26;7.90;99.90
6206;DHT22;3136;48.788;9.772;2023-04-01T19:30:12;7.90;99.90
6206;DHT22;3136;48.788;9.772;2023-04-01T19:38:14;7.80;99.90
6206;DHT22;3136;48.788;9.772;2023-04-01T19:40:55;7.80;99.90
6206;DHT22;3136;48.788;9.772;2023-04-01T19:46:19;7.80;99.90
6206;DHT22;3136;48.788;9.772;2023-04-01T19:49:14;7.70;99.90
6206;DHT22;3136;48.788;9.772;2023-04-01T19:57:30;7.60;99.90
6206;DHT22;3136;48.788;9.772;2023-04-01T20:00:31;7.60;1.00
6206;DHT22;3136;48.788;9.772;2023-04-01T20:05:49;7.50;99.90
6206;DHT22;3136;48.788;9.772;2023-04-01T20:08:33;7.30;99.90
6206;DHT22;3136;48.788;9.772;2023-04-01T20:11:25;7.30;1.00
6206;DHT22;3136;48.788;9.772;2023-04-01T20:14:01;7.20;99.90
6206;DHT22;3136;48.788;9.772;2023-04-01T20:19:44;7.30;1.00
6206;DHT22;3136;48.788;9.772;2023-04-01T20:22:38;7.30;1.00
6206;DHT22;3136;48.788;9.772;2023-04-01T20:25:25;7.30;1.00
6206;DHT22;3136;48.788;9.772;2023-04-01T20:30:57;7.30;1.00
6206;DHT22;3136;48.788;9.772;2023-04-01T20:33:30;7.30;1.00
6206;DHT22;3136;48.788;9.772;2023-04-01T20:39:31;7.30;1.00
6206;DHT22;3136;48.788;9.772;2023-04-01T20:45:08;7.20;1.00
6206;DHT22;3136;48.788;9.772;2023-04-01T20:47:51;7.30;43.90
6206;DHT22;3136;48.788;9.772;2023-04-01T20:50:32;7.20;99.90
6206;DHT22;3136;48.788;9.772;2023-04-01T20:53:20;7.30;99.90
6206;DHT22;3136;48.788;9.772;2023-04-01T21:00:55;7.30;99.90
6206;DHT22;3136;48.788;9.772;2023-04-01T21:25:42;7.30;1.00
6206;DHT22;3136;48.788;9.772;2023-04-01T21:28:32;7.30;1.00
6206;DHT22;3136;48.788;9.772;2023-04-01T21:42:42;7.30;1.00
6206;DHT22;3136;48.788;9.772;2023-04-01T21:55:13;7.30;1.00
6206;DHT22;3136;48.788;9.772;2023-04-01T22:00:48;7.40;1.00
6206;DHT22;3136;48.788;9.772;2023-04-01T22:03:24;7.30;1.00
6206;DHT22;3136;48.788;9.772;2023-04-01T22:06:00;7.30;1.00
6206;DHT22;3136;48.788;9.772;2023-04-01T22:08:46;7.30;1.00
6206;DHT22;3136;48.788;9.772;2023-04-01T22:14:39;7.20;1.00
6206;DHT22;3136;48.788;9.772;2023-04-01T22:17:28;7.20;1.00
6206;DHT22;3136;48.788;9.772;2023-04-01T22:25:38;7.20;1.00
6206;DHT22;3136;48.788;9.772;2023-04-01T22:28:37;7.20;1.00
6206;DHT22;3136;48.788;9.772;2023-04-01T22:31:07;7.10;1.00
6206;DHT22;3136;48.788;9.772;2023-04-01T22:34:10;7.10;1.00
6206;DHT22;3136;48.788;9.772;2023-04-01T22:39:38;7.10;1.00
6206;DHT22;3136;48.788;9.772;2023-04-01T22:48:28;7.00;1.00
6206;DHT22;3136;48.788;9.772;2023-04-01T22:51:19;7.00;1.00
6206;DHT22;3136;48.788;9.772;2023-04-01T22:54:13;7.00;1.00
6206;DHT22;3136;48.788;9.772;2023-04-01T23:00:03;7.20;1.00
6206;DHT22;3136;48.788;9.772;2023-04-01T23:02:17;7.30;1.00
6206;DHT22;3136;48.788;9.772;2023-04-01T23:04:51;7.30;1.00
6206;DHT22;3136;48.788;9.772;2023-04-01T23:13:02;7.30;99.90
6206;DHT22;3136;48.788;9.772;2023-04-01T23:15:29;7.30;99.90
6206;DHT22;3136;48.788;9.772;2023-04-01T23:21:11;7.30;99.90
6206;DHT22;3136;48.788;9.772;2023-04-01T23:28:48;7.40;1.00
6206;DHT22;3136;48.788;9.772;2023-04-01T23:31:36;7.40;1.00
6206;DHT22;3136;48.788;9.772;2023-04-01T23:36:43;7.30;1.00
6206;DHT22;3136;48.788;9.772;2023-04-01T23:41:53;7.30;1.00
6206;DHT22;3136;48.788;9.772;2023-04-01T23:44:20;7.30;1.00
6206;DHT22;3136;48.788;9.772;2023-04-01T23:46:47;7.30;1.00
6206;DHT22;3136;48.788;9.772;2023-04-01T23:49:21;7.30;1.00
6206;DHT22;3136;48.788;9.772;2023-04-01T23:52:16;7.30;1.00
6206;DHT22;3136;48.788;9.772;2023-04-01T23:54:48;7.30;1.00
6206;DHT22;3136;48.788;9.772;2023-04-01T23:57:19;7.30;1.00
